Terminal Aerodrome Forecast
Issued by NWS

Home | Current Version | Previous Version | Text Only | Print | Product List | Glossary On
Versions: 1 2 3 4 5 6 7 8 9 10 11 12 13 14 15 16 17
850
FTUS46 KSEW 190520
TAFHQM
TAF
KHQM 190520Z 1906/2006 17010KT 6SM -RA SCT015 OVC045
      TEMPO 1906/1909 3SM RA BR OVC015
     FM191800 20010KT P6SM -SHRA BKN020 BKN040=

USA.gov is the U.S. government's official web portal to all federal, state and local government web resources and services.